createdAt,value
2019-05-06T00:01:48.720Z,90.00
2019-05-06T00:04:18.742Z,90.20
2019-05-06T00:06:48.768Z,90.20
2019-05-06T00:09:18.755Z,90.50
2019-05-06T00:11:48.772Z,90.60
2019-05-06T00:14:18.762Z,90.70
2019-05-06T00:16:48.775Z,90.60
2019-05-06T00:19:18.767Z,90.80
2019-05-06T00:21:48.790Z,90.40
2019-05-06T00:24:18.799Z,90.10
2019-05-06T00:26:57.501Z,90.20
2019-05-06T00:29:29.243Z,90.30
2019-05-06T00:31:59.404Z,90.40
2019-05-06T00:34:29.511Z,90.30
2019-05-06T00:36:59.541Z,90.50
2019-05-06T00:39:51.420Z,90.70
2019-05-06T00:42:34.400Z,90.70
2019-05-06T00:45:04.407Z,90.90
2019-05-06T00:47:34.775Z,90.70
2019-05-06T00:50:05.564Z,90.40
2019-05-06T00:52:36.624Z,90.30
2019-05-06T00:55:06.639Z,90.60
2019-05-06T00:57:45.906Z,90.60
2019-05-06T01:00:21.360Z,90.60
2019-05-06T01:02:51.476Z,90.80
2019-05-06T01:05:21.570Z,90.50
2019-05-06T01:07:51.656Z,90.60
2019-05-06T01:10:23.708Z,90.80
2019-05-06T01:13:18.129Z,91.20
2019-05-06T01:15:48.206Z,90.90
2019-05-06T01:18:18.242Z,90.70
2019-05-06T01:20:48.242Z,91.00
2019-05-06T01:23:18.264Z,91.10
2019-05-06T01:25:48.239Z,91.00
2019-05-06T01:28:18.242Z,90.90
2019-05-06T01:30:48.227Z,90.80
2019-05-06T01:33:18.241Z,90.70
2019-05-06T01:35:48.246Z,90.20
2019-05-06T01:38:29.766Z,90.50
2019-05-06T01:41:33.998Z,90.80
2019-05-06T01:44:04.326Z,90.80
2019-05-06T01:46:34.547Z,90.50
2019-05-06T01:49:04.650Z,90.70
2019-05-06T01:51:34.974Z,91.10
2019-05-06T01:54:05.147Z,91.40
2019-05-06T01:56:35.127Z,91.60
2019-05-06T01:59:05.145Z,91.80
2019-05-06T02:01:35.233Z,91.90
2019-05-06T02:04:05.340Z,92.70
2019-05-06T02:06:35.411Z,92.20
2019-05-06T02:09:13.983Z,91.70
2019-05-06T02:11:45.160Z,92.30
2019-05-06T02:14:15.950Z,92.40
2019-05-06T02:16:46.170Z,92.70
2019-05-06T02:19:16.202Z,92.70
2019-05-06T02:22:13.694Z,92.90
2019-05-06T02:24:55.180Z,93.20
2019-05-06T02:27:24.736Z,93.00
2019-05-06T02:29:59.519Z,93.10
2019-05-06T02:32:50.479Z,93.40
2019-05-06T02:35:26.093Z,93.80
2019-05-06T02:37:55.110Z,93.90
2019-05-06T02:40:25.584Z,93.80
2019-05-06T02:42:55.284Z,94.10
2019-05-06T02:45:24.597Z,94.10
2019-05-06T02:48:05.944Z,94.50
2019-05-06T02:50:53.780Z,94.00
2019-05-06T02:53:24.576Z,93.50
2019-05-06T02:55:53.538Z,93.50
2019-05-06T02:58:23.747Z,93.60
2019-05-06T03:00:53.858Z,93.60
2019-05-06T03:03:23.409Z,93.80
2019-05-06T03:05:53.438Z,93.20
2019-05-06T03:08:23.742Z,93.10
2019-05-06T03:10:53.547Z,93.00
2019-05-06T03:13:23.805Z,92.80
2019-05-06T03:15:54.069Z,92.40
2019-05-06T03:18:23.812Z,92.20
2019-05-06T03:21:04.014Z,92.50
2019-05-06T03:23:35.234Z,92.20
2019-05-06T03:26:06.674Z,92.50
2019-05-06T03:28:34.985Z,92.70
2019-05-06T03:31:07.030Z,92.70
2019-05-06T03:33:56.979Z,93.10
2019-05-06T03:36:15.237Z,93.30
2019-05-06T03:38:36.047Z,93.40
2019-05-06T03:41:05.080Z,93.40
2019-05-06T03:43:34.174Z,92.90
2019-05-06T03:46:23.899Z,92.90
2019-05-06T03:48:55.515Z,93.10
2019-05-06T03:51:24.534Z,93.30
2019-05-06T03:53:56.829Z,93.60
2019-05-06T03:56:24.225Z,94.00
2019-05-06T03:58:53.859Z,93.70
2019-05-06T04:01:24.008Z,93.40
2019-05-06T04:03:57.016Z,93.70
2019-05-06T04:06:24.297Z,93.50
2019-05-06T04:08:53.419Z,93.50
2019-05-06T04:11:22.950Z,93.60
2019-05-06T04:13:53.468Z,93.50
2019-05-06T04:16:43.748Z,93.70
2019-05-06T04:19:17.928Z,93.80
2019-05-06T04:21:53.195Z,93.50
2019-05-06T04:24:33.806Z,93.40
2019-05-06T04:27:22.777Z,93.20
2019-05-06T04:29:54.350Z,93.10
2019-05-06T04:32:23.400Z,93.30
2019-05-06T04:34:53.546Z,93.10
2019-05-06T04:37:24.129Z,93.10
2019-05-06T04:39:53.709Z,93.00
2019-05-06T04:42:26.772Z,93.20
2019-05-06T04:44:53.523Z,92.90
2019-05-06T04:47:24.172Z,92.70
2019-05-06T04:49:53.646Z,92.50
2019-05-06T04:52:25.945Z,92.30
2019-05-06T04:54:53.894Z,92.30
2019-05-06T04:57:23.941Z,92.00
2019-05-06T04:59:54.147Z,91.30
2019-05-06T05:02:23.423Z,91.10
2019-05-06T05:04:53.012Z,91.40
2019-05-06T05:07:22.630Z,91.50
2019-05-06T05:09:54.444Z,90.80
2019-05-06T05:12:29.028Z,90.60
2019-05-06T05:15:09.403Z,90.60
2019-05-06T05:17:52.604Z,90.40
2019-05-06T05:20:36.572Z,89.90
2019-05-06T05:22:52.818Z,88.70
2019-05-06T05:25:22.241Z,87.10
2019-05-06T05:27:52.835Z,81.90
2019-05-06T05:30:22.228Z,77.80
2019-05-06T05:32:52.109Z,75.80
2019-05-06T05:35:22.702Z,70.20
2019-05-06T05:37:52.923Z,69.30
2019-05-06T05:40:22.535Z,69.00
2019-05-06T05:43:02.875Z,68.50
2019-05-06T05:45:32.694Z,67.10
2019-05-06T05:48:04.470Z,68.80
2019-05-06T05:50:37.344Z,67.50
2019-05-06T05:53:06.477Z,64.50
2019-05-06T05:55:35.430Z,63.00
2019-05-06T05:58:04.386Z,59.60
2019-05-06T06:00:35.037Z,65.70
2019-05-06T06:03:06.832Z,66.10
2019-05-06T06:05:35.618Z,66.50
2019-05-06T06:08:04.563Z,61.80
2019-05-06T06:10:43.495Z,61.10
2019-05-06T06:13:12.855Z,60.50
2019-05-06T06:15:52.037Z,63.00
2019-05-06T06:18:30.660Z,62.50
2019-05-06T06:21:36.880Z,63.60
2019-05-06T06:24:12.985Z,59.40
2019-05-06T06:26:42.992Z,55.80
2019-05-06T06:29:12.778Z,53.70
2019-05-06T06:32:09.958Z,52.10
2019-05-06T06:34:44.299Z,54.30
2019-05-06T06:37:47.920Z,58.60
2019-05-06T06:40:18.547Z,55.00
2019-05-06T06:42:52.433Z,55.90
2019-05-06T06:45:23.060Z,55.00
2019-05-06T06:47:53.315Z,54.40
2019-05-06T06:50:22.335Z,49.00
2019-05-06T06:52:52.545Z,51.00
2019-05-06T06:55:22.569Z,51.70
2019-05-06T06:58:13.846Z,51.30
2019-05-06T07:01:03.159Z,52.40
2019-05-06T07:03:36.331Z,51.60
2019-05-06T07:06:09.600Z,48.00
2019-05-06T07:08:38.592Z,52.70
2019-05-06T07:11:07.546Z,52.70
2019-05-06T07:13:36.482Z,49.40
2019-05-06T07:16:05.451Z,50.60
2019-05-06T07:18:34.466Z,52.50
2019-05-06T07:21:26.647Z,51.00
2019-05-06T07:23:55.636Z,50.70
2019-05-06T07:26:27.716Z,49.50
2019-05-06T07:28:56.656Z,48.80
2019-05-06T07:31:26.621Z,46.90
2019-05-06T07:33:56.924Z,46.80
2019-05-06T07:36:25.978Z,48.40
2019-05-06T07:38:54.927Z,49.40
2019-05-06T07:41:43.477Z,46.80
2019-05-06T07:44:35.371Z,46.70
2019-05-06T07:47:26.470Z,47.20
2019-05-06T07:49:55.458Z,46.40
2019-05-06T07:52:24.454Z,45.10
2019-05-06T07:54:53.515Z,45.00
2019-05-06T07:57:22.539Z,45.70
2019-05-06T07:59:52.558Z,46.60
2019-05-06T08:02:22.882Z,45.50
2019-05-06T08:04:53.136Z,44.70
2019-05-06T08:07:22.527Z,44.30
2019-05-06T08:09:52.860Z,44.10
2019-05-06T08:12:22.400Z,42.50
2019-05-06T08:14:52.346Z,43.90
2019-05-06T08:17:49.491Z,43.60
2019-05-06T08:20:18.464Z,43.00
2019-05-06T08:23:02.141Z,40.20
2019-05-06T08:25:42.292Z,41.10
2019-05-06T08:28:10.238Z,41.50
2019-05-06T08:30:39.296Z,41.30
2019-05-06T08:33:08.431Z,41.60
2019-05-06T08:35:37.372Z,39.70
2019-05-06T08:38:06.338Z,40.00
2019-05-06T08:40:35.287Z,44.90
2019-05-06T08:43:04.338Z,48.20
2019-05-06T08:45:33.351Z,47.80
2019-05-06T08:48:03.011Z,48.70
2019-05-06T08:50:48.002Z,48.60
2019-05-06T08:53:25.486Z,50.10
2019-05-06T08:55:54.439Z,50.60
2019-05-06T08:58:43.180Z,48.60
2019-05-06T09:01:14.713Z,45.50
2019-05-06T09:03:43.671Z,43.70
2019-05-06T09:06:26.907Z,41.80
2019-05-06T09:08:43.379Z,41.70
2019-05-06T09:11:12.319Z,43.20
2019-05-06T09:13:42.885Z,40.70
2019-05-06T09:16:12.961Z,42.00
2019-05-06T09:18:42.596Z,40.60
2019-05-06T09:21:12.323Z,42.00
2019-05-06T09:23:42.375Z,44.20
2019-05-06T09:26:13.607Z,47.50
2019-05-06T09:28:47.435Z,50.20
2019-05-06T09:31:23.055Z,51.90
2019-05-06T09:34:03.294Z,53.20
2019-05-06T09:36:44.239Z,53.60
2019-05-06T09:39:06.811Z,55.20
2019-05-06T09:41:37.018Z,55.60
2019-05-06T09:44:07.893Z,56.60
2019-05-06T09:46:38.153Z,56.50
2019-05-06T09:49:23.676Z,55.30
2019-05-06T09:51:53.706Z,51.80
2019-05-06T09:54:39.487Z,51.00
2019-05-06T09:57:13.787Z,49.30
2019-05-06T09:59:43.887Z,44.90
2019-05-06T10:02:14.076Z,43.10
2019-05-06T10:04:44.163Z,43.40
2019-05-06T10:07:14.259Z,43.40
2019-05-06T10:09:44.373Z,44.70
2019-05-06T10:12:14.444Z,43.20
2019-05-06T10:14:44.538Z,43.00
2019-05-06T10:17:14.639Z,42.30
2019-05-06T10:19:44.835Z,44.10
2019-05-06T10:22:14.845Z,42.10
2019-05-06T10:24:44.903Z,41.60
2019-05-06T10:27:14.934Z,40.20
2019-05-06T10:29:57.307Z,38.50
2019-05-06T10:32:46.271Z,36.80
2019-05-06T10:35:17.668Z,37.80
2019-05-06T10:38:13.172Z,34.70
2019-05-06T10:41:00.142Z,34.00
2019-05-06T10:43:28.100Z,38.30
2019-05-06T10:46:00.997Z,39.70
2019-05-06T10:48:29.882Z,41.00
2019-05-06T10:51:06.318Z,41.40
2019-05-06T10:53:36.323Z,40.70
2019-05-06T10:56:25.355Z,42.20
2019-05-06T10:58:55.887Z,43.20
2019-05-06T11:01:33.094Z,43.90
2019-05-06T11:04:02.998Z,43.90
2019-05-06T11:06:33.732Z,42.90
2019-05-06T11:09:05.920Z,43.40
2019-05-06T11:11:38.679Z,43.30
2019-05-06T11:14:08.156Z,43.10
2019-05-06T11:16:38.323Z,42.10
2019-05-06T11:19:08.529Z,42.10
2019-05-06T11:21:38.656Z,43.70
2019-05-06T11:24:08.791Z,43.70
2019-05-06T11:26:38.888Z,42.50
2019-05-06T11:29:14.371Z,43.30
2019-05-06T11:32:02.218Z,41.60
2019-05-06T11:34:56.664Z,40.90
2019-05-06T11:37:58.087Z,40.20
2019-05-06T11:40:28.207Z,37.60
2019-05-06T11:42:58.329Z,38.00
2019-05-06T11:45:28.494Z,40.20
2019-05-06T11:47:58.601Z,42.10
2019-05-06T11:50:28.756Z,42.20
2019-05-06T11:52:58.953Z,41.90
2019-05-06T11:55:36.174Z,42.20
2019-05-06T11:58:02.581Z,42.20
2019-05-06T12:00:37.959Z,42.30
2019-05-06T12:03:08.091Z,42.80
2019-05-06T12:05:38.188Z,43.10
2019-05-06T12:08:08.567Z,44.00
2019-05-06T12:10:38.708Z,44.50
2019-05-06T12:13:08.767Z,43.60
2019-05-06T12:15:38.847Z,44.10
2019-05-06T12:18:08.997Z,42.50
2019-05-06T12:20:39.082Z,42.00
2019-05-06T12:23:09.204Z,41.20
2019-05-06T12:25:39.324Z,40.10
2019-05-06T12:28:09.429Z,39.20
2019-05-06T12:30:42.326Z,40.90
2019-05-06T12:33:37.373Z,41.80
2019-05-06T12:36:15.330Z,43.00
2019-05-06T12:39:06.546Z,43.90
2019-05-06T12:41:38.659Z,44.00
2019-05-06T12:44:08.741Z,44.50
2019-05-06T12:46:43.950Z,44.30
2019-05-06T12:49:14.115Z,45.00
2019-05-06T12:51:44.266Z,44.30
2019-05-06T12:54:14.420Z,43.70
2019-05-06T12:56:44.630Z,43.80
2019-05-06T12:59:15.941Z,44.10
2019-05-06T13:01:46.122Z,44.70
2019-05-06T13:04:17.392Z,44.00
2019-05-06T13:06:47.532Z,44.20
2019-05-06T13:09:17.732Z,44.80
2019-05-06T13:11:47.807Z,45.20
2019-05-06T13:14:19.057Z,45.00
2019-05-06T13:16:49.240Z,44.40
2019-05-06T13:19:19.356Z,43.90
2019-05-06T13:21:49.504Z,43.50
2019-05-06T13:24:19.637Z,42.90
2019-05-06T13:26:49.807Z,45.00
2019-05-06T13:29:24.323Z,44.20
2019-05-06T13:31:54.496Z,44.80
2019-05-06T13:34:24.719Z,44.60
2019-05-06T13:36:54.902Z,44.70
2019-05-06T13:39:25.021Z,44.40
2019-05-06T13:41:55.139Z,44.70
2019-05-06T13:44:25.284Z,44.60
2019-05-06T13:46:55.772Z,44.40
2019-05-06T13:49:52.245Z,45.40
2019-05-06T13:52:25.853Z,47.10
2019-05-06T13:54:55.980Z,46.70
2019-05-06T13:57:28.941Z,46.60
2019-05-06T13:59:57.927Z,47.20
2019-05-06T14:02:56.179Z,47.60
2019-05-06T14:05:26.423Z,46.90
2019-05-06T14:07:56.583Z,46.00
2019-05-06T14:10:26.662Z,47.60
2019-05-06T14:12:56.866Z,46.70
2019-05-06T14:15:27.008Z,47.40
2019-05-06T14:17:57.179Z,47.20
2019-05-06T14:20:27.340Z,48.20
2019-05-06T14:22:57.506Z,48.10
2019-05-06T14:25:46.528Z,48.40
2019-05-06T14:28:32.496Z,48.10
2019-05-06T14:31:06.482Z,48.00
2019-05-06T14:33:36.567Z,47.80
2019-05-06T14:36:06.702Z,47.90
2019-05-06T14:38:36.766Z,46.50
2019-05-06T14:41:13.290Z,46.70
2019-05-06T14:43:43.550Z,47.20
2019-05-06T14:46:13.647Z,48.00
2019-05-06T14:48:43.820Z,48.90
2019-05-06T14:51:14.290Z,48.80
2019-05-06T14:53:44.428Z,48.00
2019-05-06T14:56:22.858Z,47.60
2019-05-06T14:59:09.466Z,48.40
2019-05-06T15:01:45.085Z,48.70
2019-05-06T15:04:12.657Z,49.80
2019-05-06T15:06:42.870Z,49.00
2019-05-06T15:09:13.484Z,48.60
2019-05-06T15:11:43.869Z,47.50
2019-05-06T15:14:13.971Z,45.90
2019-05-06T15:16:44.084Z,46.30
2019-05-06T15:19:14.481Z,47.00
2019-05-06T15:21:44.635Z,46.90
2019-05-06T15:24:14.815Z,47.40
2019-05-06T15:26:45.064Z,49.60
2019-05-06T15:29:15.283Z,50.50
2019-05-06T15:32:22.487Z,50.70
2019-05-06T15:35:02.534Z,49.70
2019-05-06T15:37:42.612Z,49.50
2019-05-06T15:40:14.741Z,50.60
2019-05-06T15:42:44.887Z,50.50
2019-05-06T15:45:15.003Z,51.00
2019-05-06T15:47:45.579Z,51.50
2019-05-06T15:50:15.712Z,51.50
2019-05-06T15:52:45.875Z,51.90
2019-05-06T15:55:16.019Z,52.40
2019-05-06T15:57:47.236Z,53.10
2019-05-06T16:00:18.891Z,52.30
2019-05-06T16:02:49.046Z,52.60
2019-05-06T16:05:20.876Z,53.50
2019-05-06T16:07:52.884Z,54.20
2019-05-06T16:10:22.877Z,54.20
2019-05-06T16:12:53.538Z,54.20
2019-05-06T16:15:24.851Z,54.60
2019-05-06T16:17:55.268Z,54.80
2019-05-06T16:20:25.290Z,55.20
2019-05-06T16:23:03.502Z,54.90
2019-05-06T16:25:33.687Z,55.90
2019-05-06T16:28:03.788Z,55.60
2019-05-06T16:30:34.041Z,55.80
2019-05-06T16:33:04.272Z,55.50
2019-05-06T16:35:34.426Z,56.40
2019-05-06T16:38:04.516Z,56.90
2019-05-06T16:40:34.595Z,57.50
2019-05-06T16:43:04.733Z,57.90
2019-05-06T16:45:34.904Z,58.30
2019-05-06T16:48:05.053Z,57.30
2019-05-06T16:50:35.166Z,57.70
2019-05-06T16:53:06.434Z,58.20
2019-05-06T16:55:55.555Z,57.30
2019-05-06T16:58:34.863Z,57.40
2019-05-06T17:01:06.090Z,57.60
2019-05-06T17:04:02.992Z,58.50
2019-05-06T17:06:35.440Z,58.90
2019-05-06T17:09:18.369Z,59.70
2019-05-06T17:11:39.952Z,59.10
2019-05-06T17:14:12.302Z,58.90
2019-05-06T17:16:43.270Z,59.50
2019-05-06T17:19:13.421Z,60.40
2019-05-06T17:21:44.590Z,62.20
2019-05-06T17:24:14.648Z,61.90
2019-05-06T17:26:44.765Z,62.10
2019-05-06T17:29:22.712Z,61.60
2019-05-06T17:32:15.076Z,62.50
2019-05-06T17:34:48.533Z,62.00
2019-05-06T17:37:37.113Z,61.20
2019-05-06T17:40:11.761Z,61.50
2019-05-06T17:42:42.095Z,61.90
2019-05-06T17:45:29.575Z,61.70
2019-05-06T17:48:06.201Z,62.40
2019-05-06T17:50:36.342Z,62.10
2019-05-06T17:53:06.540Z,62.30
2019-05-06T17:55:36.599Z,61.90
2019-05-06T17:58:06.779Z,62.00
2019-05-06T18:00:36.907Z,62.40
2019-05-06T18:03:06.925Z,63.20
2019-05-06T18:05:37.700Z,63.00
2019-05-06T18:08:07.690Z,63.00
2019-05-06T18:10:37.872Z,63.10
2019-05-06T18:13:08.942Z,62.80
2019-05-06T18:15:39.022Z,63.30
2019-05-06T18:18:09.048Z,64.10
2019-05-06T18:20:39.117Z,64.40
2019-05-06T18:23:09.179Z,64.80
2019-05-06T18:25:39.193Z,64.90
2019-05-06T18:28:09.195Z,65.30
2019-05-06T18:30:40.396Z,65.60
2019-05-06T18:33:10.430Z,65.80
2019-05-06T18:35:42.010Z,66.00
2019-05-06T18:38:12.222Z,66.20
2019-05-06T18:40:42.473Z,66.00
2019-05-06T18:43:12.845Z,66.00
2019-05-06T18:45:43.302Z,66.40
2019-05-06T18:48:13.320Z,66.30
2019-05-06T18:50:43.412Z,67.00
2019-05-06T18:53:13.475Z,69.00
2019-05-06T18:55:43.554Z,70.00
2019-05-06T18:58:13.547Z,70.50
2019-05-06T19:00:44.092Z,70.90
2019-05-06T19:03:14.237Z,71.30
2019-05-06T19:05:44.391Z,72.20
2019-05-06T19:08:32.841Z,72.50
2019-05-06T19:11:02.731Z,72.00
2019-05-06T19:13:33.501Z,72.80
2019-05-06T19:16:03.823Z,72.00
2019-05-06T19:18:33.917Z,72.60
2019-05-06T19:21:03.999Z,73.20
2019-05-06T19:23:34.008Z,73.70
2019-05-06T19:26:04.106Z,74.60
2019-05-06T19:28:34.095Z,75.00
2019-05-06T19:31:04.102Z,75.20
2019-05-06T19:33:34.826Z,74.90
2019-05-06T19:36:05.090Z,75.20
2019-05-06T19:38:35.220Z,75.30
2019-05-06T19:41:05.950Z,75.30
2019-05-06T19:43:36.163Z,75.80
2019-05-06T19:46:06.186Z,75.00
2019-05-06T19:48:37.336Z,74.90
2019-05-06T19:51:07.818Z,74.00
2019-05-06T19:53:37.863Z,75.00
2019-05-06T19:56:07.871Z,74.80
2019-05-06T19:58:37.894Z,75.20
2019-05-06T20:01:07.898Z,75.70
2019-05-06T20:03:37.879Z,75.90
2019-05-06T20:06:29.637Z,76.00
2019-05-06T20:09:17.336Z,76.50
2019-05-06T20:11:47.979Z,76.70
2019-05-06T20:14:17.967Z,76.30
2019-05-06T20:16:47.975Z,76.00
2019-05-06T20:19:28.142Z,75.70
2019-05-06T20:21:49.671Z,76.00
2019-05-06T20:24:22.462Z,75.70
2019-05-06T20:26:52.835Z,75.60
2019-05-06T20:29:23.074Z,75.80
2019-05-06T20:31:53.609Z,75.60
2019-05-06T20:34:23.959Z,75.90
2019-05-06T20:36:54.269Z,76.20
2019-05-06T20:39:24.355Z,76.00
2019-05-06T20:41:54.377Z,75.90
2019-05-06T20:44:24.371Z,76.30
2019-05-06T20:46:54.493Z,76.10
2019-05-06T20:49:24.626Z,76.60
2019-05-06T20:51:54.643Z,76.80
2019-05-06T20:54:24.652Z,77.50
2019-05-06T20:56:54.678Z,77.70
2019-05-06T20:59:24.678Z,78.00
2019-05-06T21:01:55.403Z,78.20
2019-05-06T21:04:25.582Z,78.30
2019-05-06T21:06:55.619Z,78.30
2019-05-06T21:09:25.709Z,78.60
2019-05-06T21:11:55.807Z,78.40
2019-05-06T21:14:25.850Z,78.60
2019-05-06T21:16:55.953Z,79.20
2019-05-06T21:19:26.028Z,79.00
2019-05-06T21:21:56.123Z,79.60
2019-05-06T21:24:26.197Z,79.50
2019-05-06T21:26:56.230Z,79.70
2019-05-06T21:29:26.386Z,80.90
2019-05-06T21:31:56.576Z,79.80
2019-05-06T21:34:27.932Z,79.80
2019-05-06T21:36:58.362Z,80.30
2019-05-06T21:39:28.367Z,80.60
2019-05-06T21:41:58.451Z,80.40
2019-05-06T21:44:28.562Z,80.70
2019-05-06T21:46:58.654Z,80.90
2019-05-06T21:49:28.751Z,81.10
2019-05-06T21:51:58.851Z,80.90
2019-05-06T21:54:28.862Z,79.30
2019-05-06T21:56:58.963Z,79.50
2019-05-06T21:59:28.979Z,80.50
2019-05-06T22:01:59.187Z,80.40
2019-05-06T22:04:29.258Z,80.90
2019-05-06T22:06:59.326Z,80.30
2019-05-06T22:09:29.316Z,81.50
2019-05-06T22:11:59.836Z,82.80
2019-05-06T22:14:29.879Z,82.80
2019-05-06T22:17:03.924Z,82.40
2019-05-06T22:19:32.652Z,82.40
2019-05-06T22:22:04.990Z,83.10
2019-05-06T22:24:55.168Z,82.80
2019-05-06T22:27:22.720Z,82.10
2019-05-06T22:29:52.810Z,82.00
2019-05-06T22:32:23.295Z,81.70
2019-05-06T22:34:53.407Z,81.10
2019-05-06T22:37:23.415Z,81.00
2019-05-06T22:39:53.406Z,81.10
2019-05-06T22:42:24.962Z,81.20
2019-05-06T22:44:55.210Z,81.30
2019-05-06T22:47:25.222Z,81.30
2019-05-06T22:49:55.295Z,80.50
2019-05-06T22:52:25.315Z,80.50
2019-05-06T22:54:55.307Z,79.10
2019-05-06T22:57:25.319Z,78.60
2019-05-06T22:59:55.307Z,79.10
2019-05-06T23:02:37.662Z,79.20
2019-05-06T23:05:08.830Z,79.50
2019-05-06T23:07:39.122Z,81.20
2019-05-06T23:10:28.375Z,82.20
2019-05-06T23:12:58.686Z,84.90
2019-05-06T23:15:28.751Z,85.20
2019-05-06T23:17:58.824Z,84.80
2019-05-06T23:20:28.931Z,85.90
2019-05-06T23:22:59.084Z,85.00
2019-05-06T23:25:29.224Z,85.40
2019-05-06T23:27:59.728Z,85.90
2019-05-06T23:30:29.928Z,86.10
2019-05-06T23:33:00.051Z,86.70
2019-05-06T23:35:30.144Z,86.10
2019-05-06T23:38:36.687Z,86.10
2019-05-06T23:41:42.947Z,86.10
2019-05-06T23:44:49.379Z,86.90
2019-05-06T23:47:55.499Z,86.60
2019-05-06T23:51:01.756Z,87.20
2019-05-06T23:54:07.705Z,87.30
2019-05-06T23:56:42.891Z,87.90
2019-05-06T23:59:12.653Z,87.70
